Time;durP1;ratioP1;P1;durP2;ratioP2;P2;SDS_P1;SDS_P2;PMS_P1;PMS_P2;Temp;Humidity;BMP_temperature;BMP_pressure;BME280_temperature;BME280_humidity;BME280_pressure;Samples;Min_cycle;Max_cycle;Signal;HPM_P1;HPM_P2
2022/02/27 08:23:37;;;;;;;12.75;7.28;;;;;;;4.13;61.40;101465.63;1089002;54;20375;-76
2022/02/27 08:24:41;;;;;;;13.18;6.80;;;;;;;4.00;62.13;101465.31;1089463;54;20038;-77
2022/02/27 08:25:46;;;;;;;13.50;6.75;;;;;;;3.94;62.22;101474.38;1089538;54;20826;-76
2022/02/27 08:26:50;;;;;;;16.92;8.52;;;;;;;3.88;62.37;101472.03;1089861;54;20034;-77
2022/02/27 08:27:52;;;;;;;13.68;7.05;;;;;;;3.88;62.65;101472.88;1091886;46;20767;-77
2022/02/27 08:28:56;;;;;;;13.00;6.57;;;;;;;3.83;62.73;101472.22;1089999;54;20026;-76
2022/02/27 08:29:57;;;;;;;13.95;6.47;;;;;;;3.79;63.28;101475.06;1089822;54;20034;-76
2022/02/27 08:31:02;;;;;;;15.77;7.70;;;;;;;3.81;63.06;101470.56;1089842;54;20045;-75
2022/02/27 08:32:04;;;;;;;10.43;6.63;;;;;;;3.84;63.13;101473.94;1089789;54;20090;-75
2022/02/27 08:33:09;;;;;;;12.02;6.10;;;;;;;3.88;62.93;101470.22;1089806;54;20705;-75
2022/02/27 08:34:11;;;;;;;11.85;6.63;;;;;;;4.00;62.89;101465.31;1090338;46;20014;-76
2022/02/27 08:35:15;;;;;;;11.70;6.55;;;;;;;4.08;62.59;101473.78;1089854;54;20033;-75
2022/02/27 08:36:17;;;;;;;15.27;6.97;;;;;;;4.17;62.20;101465.44;1089814;54;20030;-76
2022/02/27 08:37:22;;;;;;;12.90;6.72;;;;;;;4.25;62.17;101467.75;1089959;54;20025;-76
2022/02/27 08:38:24;;;;;;;11.18;6.28;;;;;;;4.39;61.89;101469.75;1090103;46;20030;-75
2022/02/27 08:39:37;;;;;;;11.98;6.57;;;;;;;4.37;61.53;101471.63;1093509;46;20053;-76
2022/02/27 08:40:39;;;;;;;15.13;7.40;;;;;;;4.47;61.66;101475.56;1090729;38;20620;-76
2022/02/27 08:41:44;;;;;;;15.27;7.45;;;;;;;4.58;60.93;101461.81;1089610;54;20030;-75
2022/02/27 08:42:51;;;;;;;15.15;8.88;;;;;;;4.62;60.71;101467.84;1089604;54;20061;-79
2022/02/27 08:43:55;;;;;;;11.63;7.00;;;;;;;4.68;60.82;101460.47;1089534;54;20041;-75
2022/02/27 08:44:58;;;;;;;12.13;7.13;;;;;;;4.79;60.32;101467.91;1090759;38;20621;-76
2022/02/27 08:46:03;;;;;;;12.15;6.40;;;;;;;4.96;59.62;101453.84;1088485;54;20026;-76
2022/02/27 08:47:05;;;;;;;14.13;7.13;;;;;;;4.82;59.60;101465.09;1087901;54;20058;-76
2022/02/27 08:48:10;;;;;;;14.25;6.80;;;;;;;4.91;59.62;101460.31;1087962;54;20650;-77
2022/02/27 08:49:16;;;;;;;13.65;7.22;;;;;;;4.92;59.72;101462.03;1087959;54;20052;-76
2022/02/27 08:50:21;;;;;;;12.10;6.57;;;;;;;5.00;59.48;101465.19;1091340;39;20249;-76
2022/02/27 08:51:22;;;;;;;13.23;6.50;;;;;;;5.08;58.73;101463.00;1090830;39;20657;-76
2022/02/27 08:52:26;;;;;;;14.35;7.55;;;;;;;5.13;58.95;101455.69;1087642;54;20827;-75
2022/02/27 08:53:31;;;;;;;11.48;6.45;;;;;;;5.30;58.63;101469.91;1087700;54;20061;-76
2022/02/27 08:54:37;;;;;;;11.50;7.00;;;;;;;5.46;57.77;101460.28;1087710;54;20034;-75
2022/02/27 08:55:39;;;;;;;14.45;7.05;;;;;;;5.55;57.81;101460.72;1088074;39;20471;-75
2022/02/27 08:56:43;;;;;;;13.80;7.18;;;;;;;5.61;57.19;101465.72;1087943;54;20031;-75
2022/02/27 08:57:46;;;;;;;12.95;6.13;;;;;;;5.66;57.01;101458.41;1088325;54;20039;-76
2022/02/27 08:58:50;;;;;;;11.43;6.55;;;;;;;5.68;56.89;101459.16;1088530;54;20042;-75
2022/02/27 08:59:51;;;;;;;14.77;7.03;;;;;;;5.74;56.95;101460.63;1088524;54;20022;-75
2022/02/27 09:00:55;;;;;;;13.65;6.93;;;;;;;5.75;56.54;101455.28;1088542;54;20029;-75
2022/02/27 09:01:57;;;;;;;11.13;6.05;;;;;;;5.83;56.31;101461.97;1088547;54;20030;-76
2022/02/27 09:03:01;;;;;;;11.30;6.07;;;;;;;5.89;56.08;101453.69;1091065;46;20042;-76
2022/02/27 09:04:03;;;;;;;12.00;6.18;;;;;;;6.01;56.24;101453.06;1088540;54;20056;-78
2022/02/27 09:05:09;;;;;;;9.95;5.88;;;;;;;6.15;55.46;101451.47;1088481;54;20038;-76
2022/02/27 09:06:11;;;;;;;11.25;6.43;;;;;;;6.29;54.89;101448.94;1088592;54;20041;-76
2022/02/27 09:07:18;;;;;;;9.90;6.22;;;;;;;6.23;55.07;101454.59;1088499;54;20678;-76
2022/02/27 09:08:22;;;;;;;11.30;6.03;;;;;;;6.36;54.98;101450.34;1088378;54;20031;-77
2022/02/27 09:09:29;;;;;;;12.00;6.45;;;;;;;6.36;54.82;101450.34;1088278;54;20031;-76
2022/02/27 09:10:33;;;;;;;13.35;6.60;;;;;;;6.37;54.85;101457.34;1088105;54;20046;-76
2022/02/27 09:11:38;;;;;;;13.45;6.45;;;;;;;6.49;54.62;101447.00;1088101;54;20039;-76
2022/02/27 09:12:43;;;;;;;15.07;6.10;;;;;;;6.47;54.68;101447.06;1087678;54;20098;-76
2022/02/27 09:13:48;;;;;;;10.35;6.78;;;;;;;6.46;54.85;101442.72;1088086;54;20045;-75
2022/02/27 09:14:50;;;;;;;11.18;5.82;;;;;;;6.55;54.44;101442.22;1087878;54;20065;-73
2022/02/27 09:15:55;;;;;;;12.85;6.40;;;;;;;6.61;54.00;101443.69;1088395;54;20042;-79
2022/02/27 09:16:56;;;;;;;13.18;6.43;;;;;;;6.65;53.61;101442.56;1088415;54;20049;-79
2022/02/27 09:18:02;;;;;;;14.70;5.90;;;;;;;6.84;53.69;101442.41;1088388;54;20018;-79
2022/02/27 09:19:06;;;;;;;9.00;5.55;;;;;;;6.95;53.39;101441.78;1088344;54;20111;-79
2022/02/27 09:20:10;;;;;;;8.27;4.97;;;;;;;7.11;53.18;101448.88;1088358;54;20038;-81
2022/02/27 09:21:14;;;;;;;10.13;5.10;;;;;;;7.26;53.07;101445.34;1088371;54;20019;-82
2022/02/27 09:22:19;;;;;;;9.15;5.20;;;;;;;7.47;52.48;101437.03;1088354;54;20034;-78
2022/02/27 09:23:23;;;;;;;8.27;4.13;;;;;;;7.81;52.27;101437.69;1087773;54;20891;-79
2022/02/27 09:24:25;;;;;;;7.93;4.47;;;;;;;7.94;51.31;101428.00;1088336;54;20038;-79
2022/02/27 09:25:29;;;;;;;7.80;4.68;;;;;;;8.20;51.13;101427.34;1088332;54;20026;-78
2022/02/27 09:26:35;;;;;;;6.93;3.97;;;;;;;8.16;49.62;101437.34;1088638;46;20768;-79
2022/02/27 09:27:37;;;;;;;7.40;4.20;;;;;;;8.39;49.99;101417.25;1088302;54;20682;-80
2022/02/27 09:28:42;;;;;;;7.72;3.92;;;;;;;8.39;49.13;101424.41;1088051;54;20042;-78
2022/02/27 09:29:48;;;;;;;7.60;3.80;;;;;;;8.58;49.13;101418.78;1087936;54;20034;-80
2022/02/27 09:30:54;;;;;;;6.72;3.72;;;;;;;8.72;48.49;101407.22;1093268;39;20650;-81
2022/02/27 09:31:59;;;;;;;10.52;3.75;;;;;;;8.82;47.56;101418.16;1088155;54;20058;-80
2022/02/27 09:33:05;;;;;;;9.25;4.20;;;;;;;8.64;46.72;101414.84;1088239;54;20053;-79
2022/02/27 09:34:07;;;;;;;8.05;3.80;;;;;;;8.76;46.98;101414.06;1088361;54;20674;-79
2022/02/27 09:35:11;;;;;;;10.93;3.95;;;;;;;8.85;45.65;101412.59;1088222;54;20026;-79
2022/02/27 09:36:15;;;;;;;8.02;4.15;;;;;;;8.58;45.70;101416.97;1088337;54;20062;-80
2022/02/27 09:37:20;;;;;;;7.63;3.70;;;;;;;8.55;45.75;101417.16;1090764;39;20872;-79
2022/02/27 09:38:21;;;;;;;9.07;3.20;;;;;;;8.55;46.69;101406.50;1088305;54;20030;-79
2022/02/27 09:39:27;;;;;;;7.07;3.63;;;;;;;8.67;46.54;101406.66;1088297;54;20031;-79
2022/02/27 09:40:29;;;;;;;7.43;3.17;;;;;;;8.86;46.00;101403.66;1088108;54;20034;-80
2022/02/27 09:41:36;;;;;;;6.70;3.22;;;;;;;9.03;45.82;101413.22;1088320;54;20046;-79
2022/02/27 09:42:38;;;;;;;7.05;3.65;;;;;;;9.06;45.32;101415.69;1087897;54;20026;-78
2022/02/27 09:43:43;;;;;;;9.02;3.70;;;;;;;9.03;44.08;101413.22;1087870;54;20030;-79
2022/02/27 09:44:45;;;;;;;10.05;3.80;;;;;;;8.98;44.86;101400.19;1087864;54;20038;-79
2022/02/27 09:45:51;;;;;;;6.05;2.95;;;;;;;9.17;44.59;101415.81;1087848;54;20034;-79
2022/02/27 09:46:53;;;;;;;9.13;3.50;;;;;;;9.25;43.61;101409.13;1087837;54;20034;-78
2022/02/27 09:47:58;;;;;;;11.90;4.20;;;;;;;9.10;43.77;101411.84;1087781;54;20097;-78
2022/02/27 09:49:00;;;;;;;7.28;3.33;;;;;;;9.29;43.73;101410.63;1087827;54;20107;-79
2022/02/27 09:50:05;;;;;;;6.13;3.15;;;;;;;9.23;43.23;101408.38;1087776;54;20074;-77
2022/02/27 09:51:06;;;;;;;6.15;3.00;;;;;;;9.25;43.65;101411.78;1088266;39;20709;-80
2022/02/27 09:52:10;;;;;;;6.43;3.20;;;;;;;9.41;43.90;101409.78;1087751;54;20878;-79
2022/02/27 09:53:15;;;;;;;6.57;2.95;;;;;;;9.46;43.36;101407.66;1088215;54;20061;-79
2022/02/27 09:54:17;;;;;;;5.85;3.33;;;;;;;9.58;43.31;101406.00;1088297;54;20046;-80
2022/02/27 09:55:22;;;;;;;6.97;3.03;;;;;;;9.80;43.09;101407.16;1088235;54;20018;-80
2022/02/27 09:56:24;;;;;;;7.45;3.13;;;;;;;9.88;42.88;101406.63;1088297;54;20038;-80
2022/02/27 09:57:30;;;;;;;6.50;3.42;;;;;;;9.95;42.23;101402.56;1088043;54;20042;-80
2022/02/27 09:58:35;;;;;;;6.78;3.10;;;;;;;10.07;42.45;101401.72;1088248;54;20061;-81
2022/02/27 09:59:37;;;;;;;6.82;3.10;;;;;;;10.02;42.03;101394.97;1088343;54;20034;-81
2022/02/27 10:00:41;;;;;;;6.03;3.00;;;;;;;10.09;41.15;101398.91;1088267;54;20115;-81
2022/02/27 10:01:59;;;;;;;7.90;3.42;;;;;;;9.94;39.96;101395.50;1088262;54;20018;-81
2022/02/27 10:03:12;;;;;;;6.78;2.80;;;;;;;9.92;40.39;101403.63;1088174;54;20023;-79
2022/02/27 10:04:21;;;;;;;7.32;3.35;;;;;;;9.89;40.48;101397.66;1088278;54;20030;-79
2022/02/27 10:05:27;;;;;;;6.63;3.55;;;;;;;9.78;40.71;101393.91;1088238;54;20034;-80
2022/02/27 10:06:49;;;;;;;7.00;3.20;;;;;;;9.89;39.73;101400.34;1088322;54;20022;-79
2022/02/27 10:07:57;;;;;;;6.53;2.92;;;;;;;9.35;40.17;101394.22;1088173;54;20042;-80
2022/02/27 10:09:01;;;;;;;5.53;2.70;;;;;;;9.30;40.46;101390.97;1090014;46;20058;-81
2022/02/27 10:10:05;;;;;;;8.95;3.20;;;;;;;9.35;40.79;101394.22;1090096;46;20035;-80
2022/02/27 10:11:12;;;;;;;8.30;2.80;;;;;;;9.25;40.68;101398.47;1089842;46;20019;-81
2022/02/27 10:12:19;;;;;;;6.88;2.60;;;;;;;9.34;40.27;101398.69;1088400;54;20037;-81
2022/02/27 10:14:19;;;;;;;;;;;;;;;;;;;;;
2022/02/27 10:15:30;;;;;;;6.20;2.78;;;;;;;9.43;40.42;101407.88;1088719;46;20046;-82
2022/02/27 10:16:32;;;;;;;6.70;3.65;;;;;;;9.54;40.26;101408.97;1088395;54;20046;-80
2022/02/27 10:17:38;;;;;;;7.25;3.25;;;;;;;9.52;39.69;101401.94;1088472;54;20014;-83
2022/02/27 10:18:45;;;;;;;6.80;3.13;;;;;;;9.46;39.68;101391.66;1088820;46;20027;-81
2022/02/27 10:19:53;;;;;;;7.15;2.90;;;;;;;9.54;39.51;101385.78;1091376;46;20034;-79
2022/02/27 10:20:57;;;;;;;6.43;3.20;;;;;;;9.57;39.96;101396.28;1088314;54;20090;-81
2022/02/27 10:21:59;;;;;;;7.03;3.65;;;;;;;9.49;39.97;101391.44;1088375;54;20045;-81
2022/02/27 10:23:06;;;;;;;6.22;3.28;;;;;;;9.58;40.45;101389.97;1088383;54;20127;-81
2022/02/27 10:24:09;;;;;;;7.40;2.92;;;;;;;9.67;39.56;101389.34;1087796;54;20045;-81
2022/02/27 10:25:19;;;;;;;6.65;2.63;;;;;;;9.72;39.26;101397.03;1088008;54;20038;-80
2022/02/27 10:26:22;;;;;;;5.80;2.90;;;;;;;9.76;39.09;101386.97;1091146;46;20662;-81
2022/02/27 10:27:41;;;;;;;6.75;3.10;;;;;;;9.75;37.88;101391.44;1088705;46;20058;-80
2022/02/27 10:29:04;;;;;;;5.25;2.55;;;;;;;9.67;38.17;101385.78;1088323;54;20042;-81
2022/02/27 10:30:16;;;;;;;6.40;2.63;;;;;;;9.71;37.94;101389.97;1088285;54;20026;-80
2022/02/27 10:31:30;;;;;;;5.20;2.45;;;;;;;9.84;37.88;101385.47;1088332;54;20733;-81
2022/02/27 10:32:36;;;;;;;4.32;1.98;;;;;;;9.87;37.60;101383.56;1088245;54;20018;-80
2022/02/27 10:33:40;;;;;;;6.38;2.70;;;;;;;9.97;37.31;101385.47;1088244;54;20034;-79
2022/02/27 10:34:44;;;;;;;5.53;2.90;;;;;;;9.99;36.96;101378.19;1091781;39;20621;-79
2022/02/27 10:35:48;;;;;;;7.45;2.53;;;;;;;9.88;37.10;101379.94;1088998;46;20062;-82
2022/02/27 10:37:03;;;;;;;6.47;2.47;;;;;;;9.84;36.92;101388.13;1088393;54;20015;-83
2022/02/27 10:38:06;;;;;;;6.50;2.40;;;;;;;9.90;37.39;101383.34;1088359;54;20026;-80
2022/02/27 10:39:10;;;;;;;5.95;3.05;;;;;;;10.06;37.80;101373.28;1088279;54;20018;-80
2022/02/27 10:40:31;;;;;;;5.47;2.40;;;;;;;10.26;37.37;101377.19;1088199;54;20015;-81
2022/02/27 10:41:36;;;;;;;6.50;3.20;;;;;;;10.29;37.25;101373.47;1087913;54;20050;-82
2022/02/27 10:42:40;;;;;;;7.03;2.63;;;;;;;10.11;36.97;101376.47;1087883;54;20030;-80
2022/02/27 10:43:43;;;;;;;6.60;2.63;;;;;;;10.03;36.64;101373.47;1087798;54;20026;-79
2022/02/27 10:45:02;;;;;;;5.03;2.40;;;;;;;9.77;36.11;101381.53;1087827;54;20030;-81
2022/02/27 10:46:04;;;;;;;7.05;3.15;;;;;;;9.65;36.00;101377.03;1088103;46;20042;-77
2022/02/27 10:47:18;;;;;;;6.72;2.33;;;;;;;9.72;35.90;101361.44;1087836;54;20042;-79
2022/02/27 10:48:31;;;;;;;5.95;2.35;;;;;;;9.54;35.75;101366.25;1087775;54;20038;-79
2022/02/27 10:49:32;;;;;;;5.75;2.58;;;;;;;9.68;36.10;101374.16;1087815;54;20027;-80
2022/02/27 10:50:38;;;;;;;6.05;2.45;;;;;;;9.73;36.08;101372.00;1087738;54;20034;-82
2022/02/27 10:51:40;;;;;;;5.18;2.53;;;;;;;9.66;35.52;101360.91;1087965;54;20801;-79
2022/02/27 10:52:46;;;;;;;4.70;2.28;;;;;;;9.61;35.08;101370.22;1088089;54;20061;-81
2022/02/27 10:53:49;;;;;;;5.22;2.40;;;;;;;9.55;35.30;101367.94;1088156;54;20757;-82
2022/02/27 10:55:30;;;;;;;6.60;2.47;;;;;;;9.56;34.82;101359.84;1090049;39;20631;-82
2022/02/27 10:56:33;;;;;;;8.73;2.78;;;;;;;9.72;35.21;101362.31;1087339;54;20094;-80
2022/02/27 10:59:00;;;;;;;6.03;2.53;;;;;;;9.77;34.44;101373.50;1088130;54;20057;-78
2022/02/27 11:00:15;;;;;;;5.55;2.47;;;;;;;9.65;34.58;101363.69;1087842;54;20039;-81
2022/02/27 11:01:20;;;;;;;5.10;2.22;;;;;;;9.68;34.97;101355.47;1087884;54;20042;-80
2022/02/27 11:04:51;;;;;;;7.15;3.50;;;;;;;10.18;34.73;101355.50;1087750;54;20295;-80
2022/02/27 11:05:57;;;;;;;6.70;2.53;;;;;;;10.20;34.62;101358.94;1087897;54;20026;-81
2022/02/27 11:06:59;;;;;;;6.10;2.55;;;;;;;10.27;34.68;101354.00;1087917;54;20035;-81
2022/02/27 11:08:08;;;;;;;5.88;2.50;;;;;;;10.41;34.54;101351.19;1087961;54;20034;-81
2022/02/27 11:09:09;;;;;;;6.68;2.75;;;;;;;10.33;34.79;101348.19;1089401;46;20045;-81
2022/02/27 11:10:15;;;;;;;5.57;2.33;;;;;;;10.57;34.88;101350.09;1088152;54;20030;-80
2022/02/27 11:11:17;;;;;;;5.63;2.80;;;;;;;10.46;34.51;101350.88;1088193;54;20034;-80
2022/02/27 11:12:23;;;;;;;7.90;2.30;;;;;;;10.62;34.26;101353.28;1088361;47;20113;-81
2022/02/27 11:13:29;;;;;;;4.18;1.85;;;;;;;10.74;34.08;101351.50;1088117;54;20090;-81
2022/02/27 11:14:31;;;;;;;7.45;2.70;;;;;;;10.74;33.69;101355.06;1088160;54;20038;-80
2022/02/27 11:15:36;;;;;;;6.22;2.60;;;;;;;10.86;33.91;101345.25;1087669;54;20041;-80
2022/02/27 11:16:38;;;;;;;4.95;2.40;;;;;;;10.86;33.90;101344.41;1087773;54;20030;-81
2022/02/27 11:17:43;;;;;;;4.72;2.15;;;;;;;10.77;33.97;101348.59;1087731;54;20030;-80
2022/02/27 11:18:48;;;;;;;5.43;2.45;;;;;;;10.70;34.05;101348.19;1087736;54;20736;-80
2022/02/27 11:19:52;;;;;;;7.60;2.17;;;;;;;10.49;33.70;101336.41;1087619;54;20061;-81
2022/02/27 11:20:57;;;;;;;5.88;2.28;;;;;;;10.37;33.88;101338.13;1087591;54;20041;-80
2022/02/27 11:22:00;;;;;;;6.30;2.60;;;;;;;10.12;34.46;101343.44;1087671;54;20738;-78
2022/02/27 11:23:04;;;;;;;4.82;2.42;;;;;;;9.99;34.54;101335.44;1088162;39;20760;-81
2022/02/27 11:24:08;;;;;;;5.05;2.35;;;;;;;9.90;34.47;101329.94;1087713;54;20042;-80
2022/02/27 11:25:13;;;;;;;4.97;2.17;;;;;;;9.76;35.04;101334.41;1087703;54;20058;-81
2022/02/27 11:26:18;;;;;;;5.22;2.50;;;;;;;9.54;35.25;101329.72;1087707;54;20030;-82
2022/02/27 11:27:27;;;;;;;7.20;2.83;;;;;;;9.56;35.36;101338.50;1087716;54;20061;-80
2022/02/27 11:28:32;;;;;;;7.85;2.80;;;;;;;9.35;34.99;101341.69;1087761;54;20030;-80
2022/02/27 11:29:34;;;;;;;5.90;2.38;;;;;;;9.17;35.55;101335.75;1087753;54;20031;-80
2022/02/27 11:30:40;;;;;;;5.15;2.30;;;;;;;9.18;35.57;101336.63;1087700;54;20832;-79
2022/02/27 11:31:42;;;;;;;5.63;2.47;;;;;;;9.18;35.32;101337.47;1087815;54;20041;-79
2022/02/27 11:32:49;;;;;;;6.50;2.70;;;;;;;8.99;35.38;101329.88;1087738;54;20030;-81
2022/02/27 11:33:51;;;;;;;6.80;2.58;;;;;;;8.94;35.83;101339.16;1090150;39;20752;-81
2022/02/27 11:34:57;;;;;;;6.50;2.67;;;;;;;8.64;36.47;101332.22;1087744;54;20030;-78
2022/02/27 11:36:01;;;;;;;5.60;2.33;;;;;;;8.66;36.89;101327.66;1087621;54;20035;-78
2022/02/27 11:37:05;;;;;;;7.20;2.67;;;;;;;8.66;36.88;101324.97;1089709;39;20619;-82
2022/02/27 11:38:11;;;;;;;5.55;2.22;;;;;;;8.70;37.10;101329.13;1087696;54;20046;-79
2022/02/27 11:40:42;;;;;;;5.95;2.35;;;;;;;8.62;37.28;101326.13;1087677;54;20019;-78
2022/02/27 11:41:49;;;;;;;6.15;2.33;;;;;;;8.64;37.50;101308.22;1087685;54;20709;-79
2022/02/27 11:42:54;;;;;;;5.72;2.47;;;;;;;8.67;37.53;101318.69;1087670;54;20042;-79
2022/02/27 11:44:00;;;;;;;5.45;2.45;;;;;;;8.58;37.14;101310.34;1087701;54;20090;-78
2022/02/27 11:45:08;;;;;;;7.90;2.80;;;;;;;8.60;37.31;101318.25;1087700;54;20030;-78
2022/02/27 11:46:14;;;;;;;6.80;3.15;;;;;;;8.62;37.19;101312.78;1087739;54;20041;-77
2022/02/27 11:47:16;;;;;;;6.20;2.80;;;;;;;8.59;37.21;101311.19;1087676;54;20062;-78
2022/02/27 11:48:20;;;;;;;4.68;2.30;;;;;;;8.67;37.31;101311.53;1087707;54;20030;-78
2022/02/27 11:49:27;;;;;;;4.85;2.65;;;;;;;8.60;37.40;101307.56;1087653;54;20038;-78
2022/02/27 11:50:35;;;;;;;6.05;2.53;;;;;;;8.73;37.47;101302.28;1087690;54;20030;-79
2022/02/27 11:51:43;;;;;;;6.90;3.08;;;;;;;8.77;37.72;101297.59;1090276;39;20691;-79
2022/02/27 11:52:47;;;;;;;5.68;2.55;;;;;;;8.68;37.92;101312.41;1087738;54;21849;-79
2022/02/27 11:53:49;;;;;;;6.20;2.78;;;;;;;8.55;38.39;101302.53;1087646;54;20035;-79
2022/02/27 11:54:56;;;;;;;6.68;3.05;;;;;;;8.67;38.27;101302.69;1087664;54;20132;-79
2022/02/27 11:56:04;;;;;;;7.50;3.00;;;;;;;8.54;38.15;101308.84;1087623;54;20034;-79
2022/02/27 11:57:13;;;;;;;5.40;2.45;;;;;;;8.54;38.56;101308.84;1087676;54;20055;-79
2022/02/27 11:58:22;;;;;;;4.07;2.28;;;;;;;8.52;38.47;101299.22;1087659;54;20970;-79
2022/02/27 11:59:51;;;;;;;6.28;2.80;;;;;;;8.53;38.22;101300.94;1087649;54;20106;-79
2022/02/27 12:00:58;;;;;;;5.78;3.40;;;;;;;8.52;38.45;101300.06;1087672;54;20034;-78
2022/02/27 12:02:00;;;;;;;5.95;2.80;;;;;;;8.44;38.58;101297.03;1087659;54;20045;-78
2022/02/27 12:03:04;;;;;;;6.28;2.95;;;;;;;8.45;38.76;101295.22;1087628;54;20034;-79
2022/02/27 12:04:24;;;;;;;7.47;3.08;;;;;;;8.52;38.82;101302.75;1087472;54;21169;-78
2022/02/27 12:05:48;;;;;;;5.25;2.55;;;;;;;8.50;38.33;101296.66;1087622;54;20037;-79
2022/02/27 12:07:03;;;;;;;6.60;3.65;;;;;;;8.56;38.05;101295.38;1087657;54;20037;-78
2022/02/27 12:08:14;;;;;;;7.70;3.63;;;;;;;8.52;38.26;101292.06;1087587;54;20055;-81
2022/02/27 12:09:15;;;;;;;7.15;3.17;;;;;;;8.53;38.59;101295.63;1087608;54;20034;-79
2022/02/27 12:10:35;;;;;;;5.50;2.97;;;;;;;8.42;37.86;101288.28;1096372;39;20248;-78
2022/02/27 12:11:44;;;;;;;7.50;3.50;;;;;;;8.60;38.10;101298.75;1088068;54;20078;-78
2022/02/27 12:12:54;;;;;;;8.63;3.63;;;;;;;8.48;38.03;101298.59;1087957;54;20092;-79
2022/02/27 12:14:02;;;;;;;6.68;3.22;;;;;;;8.50;38.24;101291.31;1089576;47;20049;-79
2022/02/27 12:15:23;;;;;;;6.88;2.90;;;;;;;8.50;38.00;101303.81;1087811;54;20759;-79
2022/02/27 12:16:39;;;;;;;5.68;2.70;;;;;;;8.50;37.79;101299.31;1087806;54;20039;-78
2022/02/27 12:17:51;;;;;;;10.05;3.08;;;;;;;8.50;37.89;101293.97;1087692;54;20042;-78
2022/02/27 12:18:57;;;;;;;5.78;2.97;;;;;;;8.45;38.13;101293.41;1087657;54;20049;-80
2022/02/27 12:19:59;;;;;;;5.97;2.85;;;;;;;8.37;37.96;101295.72;1087682;54;20061;-79
2022/02/27 12:21:06;;;;;;;4.95;2.20;;;;;;;8.34;38.05;101288.78;1087702;54;20041;-79
2022/02/27 12:22:07;;;;;;;6.00;2.90;;;;;;;8.40;38.31;101296.38;1087976;54;20046;-79
2022/02/27 12:23:13;;;;;;;4.55;2.55;;;;;;;8.48;38.35;101292.38;1087994;54;20761;-80
2022/02/27 12:24:25;;;;;;;8.25;3.22;;;;;;;8.48;38.35;101284.38;1088478;54;20030;-79
2022/02/27 12:25:33;;;;;;;6.57;3.53;;;;;;;8.53;38.40;101291.13;1088384;54;20046;-79
2022/02/27 12:26:56;;;;;;;7.30;3.05;;;;;;;8.53;38.40;101285.78;1088430;54;20038;-78
2022/02/27 12:27:58;;;;;;;7.28;3.13;;;;;;;8.57;38.63;101295.31;1088389;54;20030;-78
2022/02/27 12:29:02;;;;;;;5.75;2.92;;;;;;;8.63;38.42;101285.19;1088383;54;20034;-79
2022/02/27 12:30:07;;;;;;;6.82;3.25;;;;;;;8.66;38.40;101277.84;1088364;54;20042;-79
2022/02/27 12:31:09;;;;;;;7.82;2.85;;;;;;;8.69;38.64;101282.97;1088048;54;20030;-79
2022/02/27 12:32:16;;;;;;;6.75;2.97;;;;;;;8.72;38.41;101279.25;1088197;54;20034;-78
2022/02/27 12:33:27;;;;;;;8.40;2.90;;;;;;;8.53;38.16;101283.13;1088369;54;20038;-78
2022/02/27 12:34:32;;;;;;;7.15;2.95;;;;;;;8.52;37.90;101277.91;1089573;46;20098;-78
2022/02/27 12:35:37;;;;;;;6.20;2.75;;;;;;;8.52;38.66;101284.09;1087936;54;20736;-79
2022/02/27 12:36:41;;;;;;;5.22;2.70;;;;;;;8.54;38.03;101286.66;1088270;54;20087;-78
2022/02/27 12:37:45;;;;;;;6.68;2.72;;;;;;;8.56;38.15;101274.06;1088399;54;20760;-79
2022/02/27 12:38:48;;;;;;;6.47;2.72;;;;;;;8.54;37.83;101262.69;1088424;54;20038;-79
2022/02/27 12:39:55;;;;;;;7.45;3.17;;;;;;;8.50;38.15;101272.66;1088453;54;20034;-79
2022/02/27 12:40:58;;;;;;;8.48;3.17;;;;;;;8.57;37.86;101274.00;1089281;39;20629;-78
2022/02/27 12:42:02;;;;;;;7.47;3.50;;;;;;;8.49;38.51;101278.97;1088411;54;20022;-78
2022/02/27 12:43:13;;;;;;;7.53;3.00;;;;;;;8.53;38.36;101272.47;1088233;54;20038;-81
2022/02/27 12:44:17;;;;;;;;;;;;;;;8.48;38.32;101277.25;1088112;54;20042;-79
2022/02/27 12:45:30;;;;;;;7.20;2.83;;;;;;;8.55;37.87;101278.56;1087937;54;19966;-79
2022/02/27 12:46:32;;;;;;;6.00;2.78;;;;;;;8.59;38.11;101268.53;1087986;54;20161;-79
2022/02/27 12:47:36;;;;;;;8.63;3.38;;;;;;;8.55;38.25;101275.03;1088000;54;20049;-79
2022/02/27 12:51:17;;;;;;;5.43;2.45;;;;;;;8.58;38.07;101275.69;1088075;54;20029;-79
2022/02/27 12:52:24;;;;;;;5.80;2.90;;;;;;;8.59;37.42;101276.53;1088129;54;20057;-80
2022/02/27 12:53:29;;;;;;;6.25;2.72;;;;;;;8.63;37.41;101283.41;1089550;46;20034;-81
2022/02/27 12:54:34;;;;;;;6.40;3.05;;;;;;;8.73;36.94;101281.81;1088104;54;20034;-81
2022/02/27 12:55:40;;;;;;;6.97;2.85;;;;;;;8.67;37.15;101284.88;1088002;54;20042;-79
2022/02/27 12:56:42;;;;;;;5.75;2.97;;;;;;;8.72;37.36;101273.91;1088024;54;20045;-80
2022/02/27 12:57:49;;;;;;;5.13;2.95;;;;;;;8.72;37.13;101264.13;1088222;54;20046;-81
2022/02/27 12:58:54;;;;;;;5.28;2.78;;;;;;;8.83;36.62;101267.88;1088124;54;20098;-82
2022/02/27 12:59:58;;;;;;;6.65;3.22;;;;;;;8.84;36.79;101270.44;1088026;54;20031;-80
2022/02/27 13:01:08;;;;;;;5.78;2.80;;;;;;;8.80;37.18;101270.75;1088133;54;20035;-81
2022/02/27 13:02:16;;;;;;;6.37;2.90;;;;;;;8.70;37.23;101271.34;1088040;54;20026;-80
2022/02/27 13:03:21;;;;;;;6.38;2.92;;;;;;;8.70;37.89;101262.47;1088403;46;21050;-79
2022/02/27 13:04:28;;;;;;;6.30;3.25;;;;;;;8.64;38.17;101270.91;1087755;54;20710;-78
2022/02/27 13:05:33;;;;;;;6.93;2.88;;;;;;;8.61;37.92;101271.09;1088002;54;20054;-79
2022/02/27 13:06:38;;;;;;;6.80;2.95;;;;;;;8.66;38.44;101274.31;1087938;54;20090;-78
2022/02/27 13:07:46;;;;;;;6.88;2.97;;;;;;;8.63;38.21;101283.41;1087960;54;20034;-79
2022/02/27 13:08:50;;;;;;;7.50;3.78;;;;;;;8.57;38.38;101283.78;1087938;54;20046;-78
2022/02/27 13:09:54;;;;;;;5.28;2.53;;;;;;;8.62;38.53;101275.47;1087819;54;20046;-80
2022/02/27 13:10:58;;;;;;;6.32;2.90;;;;;;;8.73;38.34;101279.16;1088787;39;20606;-77
2022/02/27 13:12:05;;;;;;;7.57;2.70;;;;;;;8.71;37.97;101274.88;1087910;54;20022;-79
2022/02/27 13:13:13;;;;;;;6.18;2.70;;;;;;;8.76;37.96;101267.44;1088329;54;20038;-79
2022/02/27 13:14:15;;;;;;;5.45;2.92;;;;;;;8.76;37.88;101261.22;1097866;39;20612;-79
2022/02/27 13:15:19;;;;;;;5.65;2.90;;;;;;;8.84;37.63;101256.22;1088273;54;20808;-79
2022/02/27 13:16:25;;;;;;;8.40;2.95;;;;;;;8.85;37.32;101258.81;1088345;54;20044;-80
2022/02/27 13:17:31;;;;;;;6.25;2.90;;;;;;;8.98;36.86;101255.28;1088338;54;20030;-80
2022/02/27 13:18:32;;;;;;;6.90;3.03;;;;;;;8.94;37.22;101259.97;1096037;39;20602;-79
2022/02/27 13:19:38;;;;;;;7.05;3.00;;;;;;;8.92;37.40;101259.25;1088361;54;20025;-80
2022/02/27 13:20:42;;;;;;;4.88;2.67;;;;;;;8.90;37.61;101256.66;1088301;54;20026;-78
2022/02/27 13:21:49;;;;;;;6.70;3.50;;;;;;;8.93;37.39;101252.94;1088284;54;20038;-80
2022/02/27 13:22:57;;;;;;;6.47;3.00;;;;;;;8.92;37.31;101247.72;1088917;46;20067;-81
2022/02/27 13:24:01;;;;;;;6.50;2.92;;;;;;;9.04;37.34;101252.22;1088316;54;20058;-79
2022/02/27 13:25:08;;;;;;;5.47;2.78;;;;;;;8.99;37.15;101255.19;1087986;54;20039;-78
2022/02/27 13:26:09;;;;;;;5.15;2.40;;;;;;;8.97;37.01;101254.44;1087852;54;20042;-79
2022/02/27 13:27:21;;;;;;;5.82;3.17;;;;;;;8.97;36.63;101257.09;1088020;54;20146;-80
2022/02/27 13:28:25;;;;;;;6.55;3.47;;;;;;;8.98;36.67;101263.28;1087951;54;20034;-79
2022/02/27 13:29:27;;;;;;;7.25;3.08;;;;;;;8.83;36.93;101255.38;1087953;54;20063;-78
2022/02/27 13:30:32;;;;;;;6.25;2.85;;;;;;;8.86;36.94;101257.84;1087840;54;20057;-78
2022/02/27 13:31:33;;;;;;;7.38;3.63;;;;;;;8.85;37.17;101253.47;1087852;54;20699;-78
2022/02/27 13:32:39;;;;;;;6.95;3.28;;;;;;;8.92;36.97;101255.72;1087841;54;20035;-80
2022/02/27 13:33:45;;;;;;;6.90;3.10;;;;;;;8.97;36.33;101242.94;1088196;46;20039;-81
2022/02/27 13:34:49;;;;;;;8.52;3.83;;;;;;;8.92;36.15;101259.25;1088008;54;20037;-78
2022/02/27 13:35:53;;;;;;;6.95;2.97;;;;;;;8.92;35.68;101243.25;1088330;54;20023;-78
2022/02/27 13:36:55;;;;;;;6.05;3.13;;;;;;;8.97;35.50;101251.78;1088274;54;20061;-77
2022/02/27 13:38:04;;;;;;;6.88;3.10;;;;;;;8.92;35.80;101248.59;1089787;39;20681;-80
2022/02/27 13:39:06;;;;;;;5.95;2.38;;;;;;;8.92;35.64;101245.03;1099753;31;20741;-78
2022/02/27 13:40:13;;;;;;;6.60;3.17;;;;;;;8.93;35.57;101249.41;1088315;54;20734;-80
2022/02/27 13:41:26;;;;;;;6.93;2.85;;;;;;;8.94;35.24;101240.47;1088307;54;20017;-79